• Join FlightAware (Why Join?)
  • Login
  • US Flag 
08:54PM EDT


 

Airport Tracker/Info


-or-


 

Live Flight TrackerFlight Track Log ✈ BMJ70 ✈ 17-Jul-2013 ✈ KGPZ - KINL

Flight Track Log - Related Links

Times and Time Zones

All times are in EDT time to prevent confusion due to time zone crossing. See the BMJ70 flight status page for this flight to view local times or setup timezone preferences in your user account.

Time Position Orientation Groundspeed Altitude Reporting Facility
EDT Latitude Longitude Course Direction KTS MPH feet Rate Location/Type
09:26AM 47.3419 -93.4883 North 132 152 4,700  Level Minneapolis Center
09:28AM 47.3806 -93.4831 North 135 155 5,700 480 Climbing Minneapolis Center
09:29AM 47.4344 -93.4719 North 152 175 5,800  Climbing Minneapolis Center
09:30AM 47.4850 -93.4692 North 170 196 5,800 -60 Level Minneapolis Center
09:31AM 47.5353 -93.4556 10° North 178 205 5,700  Descending Minneapolis Center
09:32AM 47.5853 -93.4350 15° North 183 211 5,800  Climbing Minneapolis Center
09:33AM 47.6353 -93.4397 356° North 181 208 5,700 -60 Descending Minneapolis Center
09:34AM 47.6942 -93.4497 353° North 179 206 5,700  Level Minneapolis Center
09:35AM 47.7419 -93.4603 352° North 177 204 5,800  Climbing Minneapolis Center
09:36AM 47.7917 -93.4594 North 177 204 5,700  Descending Minneapolis Center
09:37AM 47.8425 -93.4547 North 179 206 5,800  Climbing Minneapolis Center
09:38AM 47.8828 -93.4444 10° North 181 208 5,700 -60 Descending Minneapolis Center
09:39AM 47.9436 -93.4322 North 182 209 5,700  Level Minneapolis Center
09:40AM 48.0025 -93.4269 North 180 207 5,700  Level Minneapolis Center
09:41AM 48.0519 -93.4272 360° North 179 206 5,800 180 Climbing Minneapolis Center
09:42AM 48.0903 -93.4225 North 177 204 6,100 60 Climbing Minneapolis Center
09:43AM 48.1483 -93.4033 12° North 176 203 6,000  Descending Minneapolis Center
09:44AM 48.1969 -93.3947 North 176 203 6,100  Climbing Minneapolis Center
09:45AM 48.2436 -93.3944 360° North 173 199 6,000 -360 Descending Minneapolis Center
09:46AM 48.3017 -93.3975 358° North 173 199 5,400 -780 Descending Minneapolis Center
09:47AM 48.3556 -93.3933 North 182 209 4,500 -1,020 Descending Minneapolis Center
09:48AM 48.4122 -93.3828 North 193 222 3,300 -960 Descending Minneapolis Center
09:49AM 48.4667 -93.3803 North 197 227 2,600 -480 Descending Minneapolis Center
09:50AM 48.5194 -93.3767 North 196 226 2,400 -240 Descending Minneapolis Center
09:52AM 48.5500 -93.4000 North  Level FlightAware Approximate